Time;durP1;ratioP1;P1;durP2;ratioP2;P2;SDS_P1;SDS_P2;PMS_P1;PMS_P2;Temp;Humidity;BMP_temperature;BMP_pressure;BME280_temperature;BME280_humidity;BME280_pressure;Samples;Min_cycle;Max_cycle;Signal;HPM_P1;HPM_P2
2022/10/01 00:01:54;;;;;;;2.10;1.90;;;7.60;99.90;;;;;;5098460;28;20490;-73
2022/10/01 00:04:20;;;;;;;1.90;1.80;;;7.70;99.90;;;;;;5057650;28;20424;-73
2022/10/01 00:06:45;;;;;;;1.90;1.70;;;7.70;99.90;;;;;;5082900;28;20476;-73
2022/10/01 00:09:11;;;;;;;3.00;1.90;;;7.60;99.90;;;;;;5090501;28;20740;-74
2022/10/01 00:11:37;;;;;;;2.33;1.80;;;7.60;99.90;;;;;;5092460;28;20394;-73
2022/10/01 00:14:03;;;;;;;2.00;1.80;;;7.60;99.90;;;;;;5069057;28;20819;-73
2022/10/01 00:16:29;;;;;;;2.28;1.85;;;7.60;99.90;;;;;;5086936;28;20395;-73
2022/10/01 00:18:56;;;;;;;2.20;2.10;;;7.60;99.90;;;;;;5077379;28;20447;-74
2022/10/01 00:21:24;;;;;;;2.80;1.87;;;7.70;99.90;;;;;;5083946;28;20895;-74
2022/10/01 00:24:01;;;;;;;3.65;2.08;;;7.70;99.90;;;;;;5072110;28;20486;-73
2022/10/01 00:26:30;;;;;;;2.80;1.80;;;7.60;99.90;;;;;;5085452;28;20401;-73
2022/10/01 00:28:58;;;;;;;4.30;2.20;;;7.80;99.90;;;;;;5089369;28;20398;-73
2022/10/01 00:31:25;;;;;;;2.40;1.90;;;7.70;99.90;;;;;;5084074;28;20428;-73
2022/10/01 00:33:52;;;;;;;1.70;1.60;;;7.70;99.90;;;;;;5061291;28;21095;-73
2022/10/01 00:36:18;;;;;;;2.10;2.00;;;7.90;99.90;;;;;;5080775;28;20453;-73
2022/10/01 00:38:45;;;;;;;4.55;2.30;;;7.80;99.90;;;;;;5084904;28;20451;-73
2022/10/01 00:41:11;;;;;;;2.40;1.92;;;7.70;99.90;;;;;;5084705;28;20394;-73
2022/10/01 00:43:42;;;;;;;2.10;2.00;;;7.70;99.90;;;;;;5088967;28;20397;-73
2022/10/01 00:46:28;;;;;;;2.17;1.98;;;7.60;99.90;;;;;;5081229;28;20400;-73
2022/10/01 00:48:59;;;;;;;2.20;2.00;;;7.70;99.90;;;;;;5074390;28;20414;-73
2022/10/01 00:51:31;;;;;;;1.90;1.80;;;7.60;99.90;;;;;;5079790;28;20405;-73
2022/10/01 00:54:03;;;;;;;2.05;1.90;;;7.60;99.90;;;;;;5070651;28;20398;-73
2022/10/01 00:56:30;;;;;;;1.95;1.80;;;7.60;99.90;;;;;;5067581;28;21120;-73
2022/10/01 00:58:56;;;;;;;2.88;1.80;;;7.60;99.90;;;;;;5085060;28;20407;-73
2022/10/01 01:01:23;;;;;;;2.80;2.50;;;7.50;99.90;;;;;;5084299;28;20480;-73
2022/10/01 01:03:49;;;;;;;2.40;2.00;;;7.50;99.90;;;;;;5088984;28;20398;-73
2022/10/01 01:06:15;;;;;;;2.40;2.20;;;7.50;99.90;;;;;;5082484;28;20437;-73
2022/10/01 01:08:41;;;;;;;2.60;2.40;;;7.60;99.90;;;;;;5087851;28;20425;-73
2022/10/01 01:11:22;;;;;;;2.10;2.00;;;7.60;99.90;;;;;;5091161;28;20717;-73
2022/10/01 01:14:00;;;;;;;2.60;2.10;;;7.60;99.90;;;;;;5088076;28;20402;-73
2022/10/01 01:16:42;;;;;;;2.40;2.20;;;7.70;99.90;;;;;;5079542;28;20433;-73
2022/10/01 01:19:26;;;;;;;4.45;1.65;;;7.60;99.90;;;;;;5083057;28;20398;-73
2022/10/01 01:21:59;;;;;;;2.08;1.98;;;7.60;99.90;;;;;;5089800;28;20378;-73
2022/10/01 01:24:32;;;;;;;3.45;2.17;;;7.70;99.90;;;;;;5090405;28;20519;-73
2022/10/01 01:27:23;;;;;;;2.30;2.00;;;7.60;99.90;;;;;;5086474;28;20907;-73
2022/10/01 01:29:54;;;;;;;3.30;1.90;;;7.60;99.90;;;;;;5070393;28;20397;-73
2022/10/01 01:32:29;;;;;;;1.92;1.83;;;7.60;99.90;;;;;;5087143;28;20398;-73
2022/10/01 01:35:01;;;;;;;3.00;2.30;;;7.60;99.90;;;;;;5086937;28;20504;-73
2022/10/01 01:37:31;;;;;;;1.90;1.80;;;7.60;99.90;;;;;;5071170;28;21052;-73
2022/10/01 01:40:00;;;;;;;2.80;2.10;;;7.60;99.90;;;;;;5087407;28;20402;-74
2022/10/01 01:42:36;;;;;;;2.10;2.00;;;7.60;99.90;;;;;;5085668;28;20393;-73
2022/10/01 01:45:05;;;;;;;2.10;1.80;;;7.60;99.90;;;;;;5083174;28;20394;-73
2022/10/01 01:47:32;;;;;;;2.50;2.30;;;7.60;99.90;;;;;;5078927;28;20773;-73
2022/10/01 01:50:00;;;;;;;2.47;2.28;;;7.80;99.90;;;;;;5065773;28;20405;-73
2022/10/01 01:52:26;;;;;;;2.47;2.28;;;7.70;99.90;;;;;;5068520;28;20410;-74
2022/10/01 01:54:53;;;;;;;2.22;2.03;;;7.70;99.90;;;;;;5061081;28;20901;-74
2022/10/01 01:57:20;;;;;;;2.20;2.00;;;7.80;99.90;;;;;;5076793;28;20403;-74
2022/10/01 01:59:46;;;;;;;2.00;1.80;;;7.80;99.90;;;;;;5088530;28;20444;-74
2022/10/01 02:02:21;;;;;;;2.22;2.13;;;7.90;99.90;;;;;;5080803;28;20401;-73
2022/10/01 02:04:53;;;;;;;2.30;2.10;;;7.90;99.90;;;;;;5070141;28;20401;-74
2022/10/01 02:07:31;;;;;;;2.03;1.90;;;7.90;99.90;;;;;;5085027;28;20393;-73
2022/10/01 02:10:14;;;;;;;2.30;2.10;;;7.90;99.90;;;;;;5089467;28;20385;-73
2022/10/01 02:12:53;;;;;;;2.10;1.90;;;7.90;99.90;;;;;;5056633;28;20424;-73
2022/10/01 02:15:40;;;;;;;1.90;1.80;;;8.00;99.90;;;;;;5089884;28;20412;-74
2022/10/01 02:18:22;;;;;;;2.60;2.20;;;7.90;99.90;;;;;;5081582;28;20899;-73
2022/10/01 02:21:16;;;;;;;2.45;2.25;;;7.90;99.90;;;;;;5087101;28;20497;-73
2022/10/01 02:23:52;;;;;;;2.70;2.50;;;7.90;99.90;;;;;;5078077;28;20492;-73
2022/10/01 02:26:20;;;;;;;2.70;2.35;;;8.00;99.90;;;;;;5077511;28;20418;-73
2022/10/01 02:28:49;;;;;;;2.60;1.95;;;8.00;99.90;;;;;;5086631;28;20408;-74
2022/10/01 02:31:16;;;;;;;2.50;2.30;;;8.00;99.90;;;;;;5084994;28;20471;-74
2022/10/01 02:33:45;;;;;;;2.28;2.10;;;8.10;99.90;;;;;;5083698;28;20475;-73
2022/10/01 02:36:13;;;;;;;2.20;2.00;;;8.00;99.90;;;;;;5084326;28;21341;-73
2022/10/01 02:38:43;;;;;;;2.20;2.10;;;8.00;99.90;;;;;;5083329;28;20413;-74
2022/10/01 02:41:12;;;;;;;2.03;1.83;;;8.20;99.90;;;;;;5063122;28;20402;-73
2022/10/01 02:43:55;;;;;;;2.80;2.20;;;8.20;99.90;;;;;;5081156;28;20405;-74
2022/10/01 02:46:47;;;;;;;1.80;1.70;;;8.20;99.90;;;;;;5071589;28;20440;-73
2022/10/01 02:49:13;;;;;;;2.30;2.10;;;8.20;99.90;;;;;;5086314;28;20412;-73
2022/10/01 02:52:11;;;;;;;2.30;2.20;;;8.30;99.90;;;;;;5089590;28;20384;-74
2022/10/01 02:54:44;;;;;;;2.47;2.28;;;8.30;99.90;;;;;;5069243;28;20780;-73
2022/10/01 02:57:25;;;;;;;2.65;1.80;;;8.30;99.90;;;;;;5069402;28;20388;-73
2022/10/01 02:59:56;;;;;;;1.90;1.80;;;8.30;99.90;;;;;;5051542;28;20391;-73
2022/10/01 03:02:26;;;;;;;1.90;1.80;;;8.40;99.90;;;;;;5051389;28;20402;-73
2022/10/01 03:04:52;;;;;;;2.15;1.65;;;8.40;99.90;;;;;;5070098;28;20419;-73
2022/10/01 03:07:17;;;;;;;2.10;1.90;;;8.40;99.90;;;;;;5089636;28;20391;-73
2022/10/01 03:09:43;;;;;;;2.00;1.80;;;8.40;99.90;;;;;;5084754;28;20400;-74
2022/10/01 03:12:09;;;;;;;2.38;2.17;;;8.40;99.90;;;;;;5089499;28;20378;-73
2022/10/01 03:14:35;;;;;;;2.00;1.90;;;8.40;99.90;;;;;;5089267;28;20398;-73
2022/10/01 03:17:01;;;;;;;3.40;1.88;;;8.40;99.90;;;;;;5089365;28;20378;-73
2022/10/01 03:19:26;;;;;;;2.07;1.97;;;8.50;99.90;;;;;;5074931;28;20378;-73
2022/10/01 03:21:52;;;;;;;2.17;1.97;;;8.50;99.90;;;;;;5092269;28;20382;-73
2022/10/01 03:24:18;;;;;;;3.67;2.47;;;8.50;99.90;;;;;;5093239;28;20400;-73
2022/10/01 03:26:44;;;;;;;2.10;1.90;;;8.60;99.90;;;;;;5074183;28;20421;-73
2022/10/01 03:29:10;;;;;;;1.80;1.70;;;8.60;99.90;;;;;;5073255;28;20446;-73
2022/10/01 03:31:36;;;;;;;1.80;1.70;;;8.70;99.90;;;;;;5093451;28;20382;-73
2022/10/01 03:34:02;;;;;;;2.13;1.80;;;8.70;99.90;;;;;;5074969;28;20461;-73
2022/10/01 03:36:28;;;;;;;2.35;2.00;;;8.80;99.90;;;;;;5075335;28;20574;-73
2022/10/01 03:38:54;;;;;;;1.98;1.77;;;8.80;99.90;;;;;;5090301;28;20390;-73
2022/10/01 03:41:20;;;;;;;1.73;1.50;;;8.80;99.90;;;;;;5074419;28;20473;-73
2022/10/01 03:43:45;;;;;;;1.43;1.33;;;9.40;99.90;;;;;;5060856;28;20390;-73
2022/10/01 03:46:11;;;;;;;1.90;1.50;;;9.80;99.90;;;;;;5084936;28;20402;-73
2022/10/01 03:48:37;;;;;;;1.55;1.45;;;9.60;99.90;;;;;;5090802;28;20408;-73
2022/10/01 03:51:03;;;;;;;1.20;1.10;;;9.60;99.90;;;;;;5093288;28;20476;-73
2022/10/01 03:53:30;;;;;;;0.93;0.90;;;9.90;99.90;;;;;;5092882;28;20386;-73
2022/10/01 03:55:56;;;;;;;1.60;1.50;;;10.50;99.90;;;;;;5072190;28;20400;-73
2022/10/01 03:58:22;;;;;;;1.10;0.90;;;10.30;99.90;;;;;;5084290;28;20872;-73
2022/10/01 04:00:48;;;;;;;1.27;1.17;;;10.60;99.90;;;;;;5085284;28;20398;-73
2022/10/01 04:03:14;;;;;;;1.00;0.80;;;11.00;99.90;;;;;;5082002;28;20399;-74
2022/10/01 04:05:41;;;;;;;0.82;0.80;;;11.30;99.90;;;;;;5093258;28;20385;-73
2022/10/01 04:08:07;;;;;;;1.05;0.95;;;11.70;99.90;;;;;;5091130;28;20519;-73
2022/10/01 04:10:33;;;;;;;1.60;0.90;;;12.10;99.90;;;;;;5087375;28;20409;-74
2022/10/01 04:12:58;;;;;;;2.30;1.10;;;12.20;99.90;;;;;;5066577;28;20382;-73
2022/10/01 04:15:24;;;;;;;1.23;1.00;;;12.10;99.90;;;;;;5088796;28;20930;-73
2022/10/01 04:17:50;;;;;;;0.75;0.75;;;12.20;99.90;;;;;;5078782;28;20444;-73
2022/10/01 04:20:15;;;;;;;1.80;1.00;;;12.30;99.90;;;;;;5086244;28;20406;-73
2022/10/01 04:22:42;;;;;;;1.20;1.00;;;12.20;99.90;;;;;;5081266;28;20488;-72
2022/10/01 04:25:11;;;;;;;1.20;1.00;;;12.10;99.90;;;;;;5069200;28;20639;-73
2022/10/01 04:27:41;;;;;;;1.10;1.00;;;12.20;99.90;;;;;;5083785;28;20408;-73
2022/10/01 04:30:08;;;;;;;1.75;0.70;;;12.40;99.90;;;;;;5082241;28;20403;-73
2022/10/01 04:32:34;;;;;;;1.17;0.80;;;12.40;99.90;;;;;;5072745;28;20430;-73
2022/10/01 04:35:02;;;;;;;1.13;1.00;;;12.40;99.90;;;;;;5087595;28;20449;-73
2022/10/01 04:37:29;;;;;;;0.70;0.70;;;12.40;99.90;;;;;;5090142;28;20410;-73
2022/10/01 04:39:54;;;;;;;0.90;0.70;;;12.30;99.90;;;;;;5082418;28;20411;-73
2022/10/01 04:42:20;;;;;;;1.20;0.90;;;12.40;99.90;;;;;;5087893;28;20906;-73
2022/10/01 04:44:46;;;;;;;1.60;0.80;;;12.30;99.90;;;;;;5084080;28;20396;-73
2022/10/01 04:47:12;;;;;;;1.23;0.80;;;12.40;99.90;;;;;;5081895;28;20408;-73
2022/10/01 04:49:37;;;;;;;1.17;0.80;;;12.60;99.90;;;;;;5067760;28;20407;-73
2022/10/01 04:52:03;;;;;;;2.47;1.20;;;12.70;99.90;;;;;;5064100;28;20405;-73
2022/10/01 04:54:29;;;;;;;1.20;0.80;;;12.70;99.90;;;;;;5082887;28;20428;-73
2022/10/01 04:56:56;;;;;;;1.03;0.70;;;12.70;99.90;;;;;;5086326;28;20431;-73
2022/10/01 04:59:22;;;;;;;1.60;0.70;;;12.70;99.90;;;;;;5076087;28;21097;-73
2022/10/01 05:01:47;;;;;;;1.10;1.00;;;12.70;99.90;;;;;;5082527;28;20397;-72
2022/10/01 05:04:13;;;;;;;1.00;0.80;;;12.80;99.90;;;;;;5087374;28;20427;-72
2022/10/01 05:06:40;;;;;;;1.40;0.90;;;12.80;99.90;;;;;;5084076;28;20394;-72
2022/10/01 05:09:05;;;;;;;2.15;0.90;;;13.00;99.90;;;;;;5085694;28;20401;-72
2022/10/01 05:11:31;;;;;;;0.80;0.70;;;12.90;99.90;;;;;;5080094;28;20913;-72
2022/10/01 05:13:56;;;;;;;1.20;0.77;;;12.90;99.90;;;;;;5086505;28;20401;-72
2022/10/01 05:16:22;;;;;;;1.20;0.90;;;12.90;99.90;;;;;;5082985;28;20417;-72
2022/10/01 05:18:47;;;;;;;0.80;0.70;;;13.00;99.90;;;;;;5084744;28;20428;-73
2022/10/01 05:21:14;;;;;;;1.30;1.00;;;13.10;99.90;;;;;;5073510;28;20442;-72
2022/10/01 05:23:40;;;;;;;0.77;0.70;;;13.10;99.90;;;;;;5081817;28;20404;-73
2022/10/01 05:26:07;;;;;;;1.80;0.80;;;13.00;99.90;;;;;;5057732;28;20402;-72
2022/10/01 05:28:33;;;;;;;1.45;0.88;;;13.00;99.90;;;;;;5065811;28;20493;-72
2022/10/01 05:31:02;;;;;;;0.82;0.70;;;12.90;99.90;;;;;;5081141;28;20964;-74
2022/10/01 05:33:29;;;;;;;0.80;0.70;;;12.80;99.90;;;;;;5087041;28;20412;-73
2022/10/01 05:35:56;;;;;;;1.80;0.80;;;12.70;99.90;;;;;;5082418;28;20402;-74
2022/10/01 05:38:22;;;;;;;0.90;0.90;;;12.60;99.90;;;;;;5079815;28;20412;-74
2022/10/01 05:40:47;;;;;;;1.40;0.80;;;12.50;99.90;;;;;;5084373;28;20394;-74
2022/10/01 05:43:13;;;;;;;1.00;0.90;;;12.40;99.90;;;;;;5077975;28;20789;-73
2022/10/01 05:45:39;;;;;;;1.23;1.00;;;12.10;99.90;;;;;;5082626;28;20421;-74
2022/10/01 05:48:07;;;;;;;1.77;1.00;;;11.90;99.90;;;;;;5085834;28;20401;-73
2022/10/01 05:50:38;;;;;;;2.70;1.10;;;11.60;99.90;;;;;;5088707;28;20443;-74
2022/10/01 05:53:04;;;;;;;1.40;1.10;;;11.40;99.90;;;;;;5057041;28;20429;-74
2022/10/01 05:55:33;;;;;;;2.10;1.30;;;11.30;99.90;;;;;;5086034;28;20406;-74
2022/10/01 05:58:04;;;;;;;1.50;1.30;;;11.20;99.90;;;;;;5087554;28;20401;-74
2022/10/01 06:00:31;;;;;;;1.50;1.40;;;11.20;99.90;;;;;;5070500;28;20382;-74
2022/10/01 06:02:58;;;;;;;2.50;1.40;;;11.00;99.90;;;;;;5084663;28;20407;-74
2022/10/01 06:05:25;;;;;;;1.90;1.50;;;10.90;99.90;;;;;;5079349;28;20436;-74
2022/10/01 06:07:52;;;;;;;2.20;1.60;;;10.80;99.90;;;;;;5078398;28;20397;-74
2022/10/01 06:10:19;;;;;;;1.90;1.50;;;10.80;99.90;;;;;;5068403;28;20406;-74
2022/10/01 06:12:44;;;;;;;1.52;1.42;;;10.70;99.90;;;;;;5087340;28;20393;-74
2022/10/01 06:15:11;;;;;;;1.93;1.80;;;10.60;99.90;;;;;;5082856;28;20482;-74
2022/10/01 06:17:42;;;;;;;1.90;1.40;;;10.80;99.90;;;;;;5085408;28;20469;-75
2022/10/01 06:20:12;;;;;;;2.50;1.60;;;10.80;99.90;;;;;;5068560;28;20694;-75
2022/10/01 06:22:39;;;;;;;1.50;1.40;;;10.70;99.90;;;;;;5082339;28;20398;-75
2022/10/01 06:25:06;;;;;;;1.60;1.50;;;10.70;99.90;;;;;;5067973;28;20429;-75
2022/10/01 06:27:32;;;;;;;2.00;1.80;;;10.90;99.90;;;;;;5082966;28;20398;-75
2022/10/01 06:29:57;;;;;;;2.72;1.85;;;10.80;99.90;;;;;;5081878;28;20393;-75
2022/10/01 06:32:23;;;;;;;1.80;1.70;;;10.80;99.90;;;;;;5088381;28;20402;-75
2022/10/01 06:34:48;;;;;;;2.10;1.87;;;10.70;99.90;;;;;;5083678;28;20410;-76
2022/10/01 06:37:14;;;;;;;2.55;2.00;;;10.70;99.90;;;;;;5083612;28;20414;-77
2022/10/01 06:39:43;;;;;;;2.85;2.13;;;10.60;99.90;;;;;;5084861;28;20504;-74
2022/10/01 06:42:09;;;;;;;2.10;1.90;;;10.90;99.90;;;;;;5083547;28;20405;-75
2022/10/01 06:44:35;;;;;;;2.00;1.80;;;10.80;99.90;;;;;;5066494;28;20414;-76
2022/10/01 06:47:00;;;;;;;2.40;1.80;;;10.80;99.90;;;;;;5080204;28;20409;-76
2022/10/01 06:49:26;;;;;;;3.10;2.03;;;10.70;99.90;;;;;;5083310;28;20437;-76
2022/10/01 06:54:35;;;;;;;2.13;1.95;;;10.80;99.90;;;;;;5083455;28;20902;-75
2022/10/01 06:57:01;;;;;;;2.10;1.90;;;10.90;99.90;;;;;;5088216;28;20407;-75
2022/10/01 06:59:26;;;;;;;2.38;1.95;;;10.80;99.90;;;;;;5081169;28;20477;-75
2022/10/01 07:01:52;;;;;;;2.83;2.30;;;10.70;99.90;;;;;;5088520;28;20481;-74
2022/10/01 07:04:19;;;;;;;2.33;1.85;;;11.00;99.90;;;;;;5085915;28;20444;-73
2022/10/01 07:06:44;;;;;;;2.10;1.90;;;11.00;99.90;;;;;;5084370;28;20394;-74
2022/10/01 07:09:10;;;;;;;2.00;1.90;;;11.00;99.90;;;;;;5085394;28;20410;-75
2022/10/01 07:11:40;;;;;;;1.80;1.70;;;10.90;99.90;;;;;;5081223;28;20445;-74
2022/10/01 07:14:06;;;;;;;2.00;1.80;;;10.90;99.90;;;;;;5087431;28;20609;-75
2022/10/01 07:16:32;;;;;;;2.10;1.90;;;10.90;99.90;;;;;;5080161;28;20417;-75
2022/10/01 07:18:58;;;;;;;1.90;1.80;;;10.90;99.90;;;;;;5089454;28;20806;-74
2022/10/01 07:21:23;;;;;;;1.70;1.60;;;10.80;99.90;;;;;;5090158;28;20388;-75
2022/10/01 07:23:49;;;;;;;2.00;1.80;;;11.00;99.90;;;;;;5073045;28;20457;-75
2022/10/01 07:26:14;;;;;;;3.90;1.60;;;10.80;99.90;;;;;;5055306;28;20418;-75
2022/10/01 07:28:40;;;;;;;2.47;1.80;;;10.70;99.90;;;;;;5054370;28;20411;-75
2022/10/01 07:31:10;;;;;;;1.50;1.40;;;10.80;99.90;;;;;;5066988;28;20942;-75
2022/10/01 07:33:38;;;;;;;2.60;2.10;;;10.80;99.90;;;;;;5086328;28;20397;-75
2022/10/01 07:36:07;;;;;;;1.90;1.70;;;10.80;99.90;;;;;;5066817;28;21015;-75
2022/10/01 07:38:33;;;;;;;1.60;1.50;;;10.90;99.90;;;;;;5055940;28;20766;-75
2022/10/01 07:41:01;;;;;;;1.92;1.73;;;10.80;99.90;;;;;;5080589;28;20392;-75
2022/10/01 07:43:27;;;;;;;1.38;1.27;;;10.80;99.90;;;;;;5093027;28;20883;-74
2022/10/01 07:45:56;;;;;;;3.15;1.80;;;10.90;99.90;;;;;;5093460;28;20378;-74
2022/10/01 07:48:23;;;;;;;1.75;1.65;;;10.80;99.90;;;;;;5093581;28;20382;-74
2022/10/01 07:50:49;;;;;;;1.80;1.70;;;10.70;99.90;;;;;;5071454;28;20428;-74
2022/10/01 07:53:15;;;;;;;2.20;1.30;;;10.60;99.90;;;;;;5090670;28;20405;-76
2022/10/01 07:55:41;;;;;;;2.67;1.80;;;10.70;99.90;;;;;;5090904;28;20418;-75
2022/10/01 07:58:07;;;;;;;1.80;1.70;;;10.70;99.90;;;;;;5063740;28;20436;-76
2022/10/01 08:00:33;;;;;;;1.80;1.70;;;10.70;99.90;;;;;;5091281;28;20469;-76
2022/10/01 08:02:59;;;;;;;1.73;1.25;;;10.80;99.90;;;;;;5081947;28;20414;-75
2022/10/01 08:05:30;;;;;;;1.92;1.30;;;10.80;99.90;;;;;;5080466;28;20408;-75
2022/10/01 08:08:01;;;;;;;0.90;0.90;;;10.80;99.90;;;;;;5079381;28;20946;-75
2022/10/01 08:10:27;;;;;;;1.20;1.10;;;11.00;99.90;;;;;;5085689;28;21023;-74
2022/10/01 08:13:06;;;;;;;1.50;1.10;;;11.00;99.90;;;;;;5061502;28;20454;-74
2022/10/01 08:15:31;;;;;;;1.80;0.98;;;11.20;99.90;;;;;;5061274;28;20402;-75
2022/10/01 08:18:01;;;;;;;2.20;1.10;;;11.10;99.90;;;;;;5082000;28;20471;-75
2022/10/01 08:20:27;;;;;;;0.80;0.80;;;11.10;99.90;;;;;;5088869;28;20421;-74
2022/10/01 08:22:52;;;;;;;1.77;0.85;;;11.20;99.90;;;;;;5080803;28;20469;-73
2022/10/01 08:25:18;;;;;;;1.45;0.90;;;11.10;99.90;;;;;;5078818;28;20402;-73
2022/10/01 08:27:43;;;;;;;1.20;0.80;;;11.50;99.90;;;;;;5080666;28;20433;-76
2022/10/01 08:30:09;;;;;;;0.60;0.50;;;11.50;99.90;;;;;;5072005;28;20414;-76
2022/10/01 08:32:35;;;;;;;0.70;0.63;;;11.60;99.90;;;;;;5071813;28;20390;-76
2022/10/01 08:35:00;;;;;;;1.20;0.70;;;11.90;99.90;;;;;;5064266;28;20409;-76
2022/10/01 08:37:27;;;;;;;0.73;0.60;;;11.90;99.90;;;;;;5090172;28;20409;-76
2022/10/01 08:39:54;;;;;;;1.45;0.60;;;11.90;99.90;;;;;;5079285;28;20415;-75
2022/10/01 08:42:28;;;;;;;1.65;0.50;;;12.00;99.90;;;;;;5074590;28;20792;-75
2022/10/01 08:44:54;;;;;;;1.10;0.40;;;12.00;99.90;;;;;;5093752;28;21366;-75
2022/10/01 08:47:34;;;;;;;0.90;0.73;;;11.90;99.90;;;;;;5079895;28;20398;-74
2022/10/01 08:50:13;;;;;;;0.90;0.90;;;11.90;99.90;;;;;;5088304;28;20768;-74
2022/10/01 08:52:53;;;;;;;1.40;0.50;;;11.70;99.90;;;;;;5081349;28;20498;-76
2022/10/01 08:55:23;;;;;;;1.08;0.68;;;11.70;99.90;;;;;;5081302;28;20418;-75
2022/10/01 08:57:53;;;;;;;0.90;0.65;;;11.60;99.90;;;;;;5090729;28;21054;-75
2022/10/01 09:00:18;;;;;;;0.80;0.80;;;11.60;99.90;;;;;;5088890;28;20394;-73
2022/10/01 09:02:45;;;;;;;0.87;0.70;;;11.70;99.90;;;;;;5075674;28;20415;-73
2022/10/01 09:05:26;;;;;;;2.00;0.80;;;11.80;99.90;;;;;;5092756;28;20404;-74
2022/10/01 09:07:51;;;;;;;0.70;0.50;;;11.90;99.90;;;;;;5087737;28;20400;-74
2022/10/01 09:10:44;;;;;;;1.50;0.60;;;12.10;99.90;;;;;;5106283;28;20388;-73
2022/10/01 09:13:24;;;;;;;2.30;0.70;;;12.30;99.90;;;;;;5104869;28;20475;-74
2022/10/01 09:15:56;;;;;;;1.10;0.63;;;12.10;99.90;;;;;;5090839;28;20408;-75
2022/10/01 09:18:50;;;;;;;0.70;0.70;;;12.30;99.90;;;;;;5078053;28;20491;-73
2022/10/01 09:21:19;;;;;;;0.85;0.73;;;12.40;99.90;;;;;;5082686;28;20394;-73
2022/10/01 09:24:20;;;;;;;1.00;0.70;;;12.40;99.90;;;;;;5056993;28;20404;-71
2022/10/01 09:26:48;;;;;;;0.70;0.70;;;12.50;99.90;;;;;;5068536;28;20452;-73
2022/10/01 09:29:25;;;;;;;0.70;0.70;;;12.70;99.90;;;;;;5090575;28;20864;-73
2022/10/01 09:31:52;;;;;;;1.45;0.70;;;12.70;99.90;;;;;;5091158;28;20852;-73
2022/10/01 09:34:38;;;;;;;0.90;0.60;;;12.80;99.90;;;;;;5083810;28;20407;-73
2022/10/01 09:37:31;;;;;;;1.20;0.90;;;12.70;99.90;;;;;;5074848;28;20457;-74
2022/10/01 09:40:11;;;;;;;1.40;0.87;;;12.60;99.90;;;;;;5070697;28;20388;-74
2022/10/01 09:42:37;;;;;;;0.80;0.70;;;12.70;99.90;;;;;;5081890;28;20439;-73
2022/10/01 09:45:05;;;;;;;0.70;0.60;;;12.70;99.90;;;;;;5091129;28;20907;-72
2022/10/01 09:47:32;;;;;;;0.80;0.80;;;12.70;99.90;;;;;;5091850;28;20386;-72
2022/10/01 09:50:02;;;;;;;0.80;0.50;;;12.80;99.90;;;;;;5083500;28;20390;-72
2022/10/01 09:52:34;;;;;;;0.80;0.80;;;12.80;99.90;;;;;;5075973;28;20455;-73
2022/10/01 09:55:41;;;;;;;0.90;0.80;;;12.80;99.90;;;;;;5076704;28;20888;-72
2022/10/01 09:58:12;;;;;;;0.70;0.60;;;12.80;99.90;;;;;;4971408;28;20526;-73
2022/10/01 10:00:39;;;;;;;1.00;0.80;;;12.70;99.90;;;;;;4956072;28;20438;-72
2022/10/01 10:03:05;;;;;;;0.80;0.80;;;12.60;99.90;;;;;;5007111;28;20440;-74
2022/10/01 10:05:47;;;;;;;0.80;0.80;;;12.50;99.90;;;;;;5080270;28;20417;-74
2022/10/01 10:08:29;;;;;;;0.90;0.80;;;12.40;99.90;;;;;;5058529;28;20406;-73
2022/10/01 10:11:00;;;;;;;0.90;0.77;;;12.40;99.90;;;;;;5079121;28;20885;-71
2022/10/01 10:13:40;;;;;;;2.03;1.08;;;12.40;99.90;;;;;;5080176;28;20485;-73
2022/10/01 10:16:14;;;;;;;1.33;0.80;;;12.30;99.90;;;;;;5075774;28;20470;-73
2022/10/01 10:18:40;;;;;;;1.23;1.00;;;12.20;99.90;;;;;;5080090;28;20380;-73
2022/10/01 10:21:15;;;;;;;0.97;0.87;;;12.10;99.90;;;;;;5077284;28;20833;-73
2022/10/01 10:23:53;;;;;;;1.00;0.90;;;12.30;99.90;;;;;;5068468;28;20407;-73
2022/10/01 10:26:28;;;;;;;0.70;0.70;;;12.40;99.90;;;;;;5062676;28;20402;-72
2022/10/01 10:28:57;;;;;;;0.63;0.63;;;12.50;99.90;;;;;;5079686;28;20834;-74
2022/10/01 10:31:25;;;;;;;1.00;0.90;;;12.60;99.90;;;;;;5075844;28;20409;-73
2022/10/01 10:34:12;;;;;;;0.90;0.80;;;12.60;99.90;;;;;;5081213;28;20474;-73
2022/10/01 10:36:39;;;;;;;0.98;0.65;;;12.70;99.90;;;;;;5074320;28;20409;-73
2022/10/01 10:39:15;;;;;;;2.30;1.10;;;12.70;99.90;;;;;;5067197;28;20403;-73
2022/10/01 10:41:45;;;;;;;1.77;1.17;;;12.80;99.90;;;;;;5065843;28;20460;-73
2022/10/01 10:44:18;;;;;;;1.75;1.00;;;12.80;99.90;;;;;;5075647;28;20372;-73
2022/10/01 10:46:44;;;;;;;1.02;0.93;;;13.00;99.90;;;;;;5077568;28;20461;-72
2022/10/01 10:49:25;;;;;;;0.70;0.50;;;13.10;99.90;;;;;;5060444;28;20382;-72
2022/10/01 10:51:59;;;;;;;2.53;1.10;;;13.10;99.90;;;;;;5077098;28;20897;-73
2022/10/01 10:54:39;;;;;;;1.13;0.70;;;13.20;99.90;;;;;;5077337;28;20389;-75
2022/10/01 10:57:27;;;;;;;0.82;0.70;;;13.30;99.90;;;;;;5077647;28;20448;-72
2022/10/01 11:00:01;;;;;;;0.77;0.60;;;13.40;99.90;;;;;;5078664;28;20380;-73
2022/10/01 11:02:29;;;;;;;1.00;0.68;;;13.30;99.90;;;;;;5076710;28;20987;-73
2022/10/01 11:04:56;;;;;;;0.80;0.60;;;13.30;99.90;;;;;;5064850;28;20947;-74
2022/10/01 11:07:24;;;;;;;0.70;0.60;;;13.40;99.90;;;;;;5078588;28;20396;-73
2022/10/01 11:10:07;;;;;;;0.80;0.80;;;13.40;99.90;;;;;;5062678;28;20399;-73
2022/10/01 11:12:55;;;;;;;2.10;0.70;;;13.50;99.90;;;;;;5062071;28;20397;-73
2022/10/01 11:15:45;;;;;;;1.15;0.73;;;13.50;99.90;;;;;;5084619;28;20900;-71
2022/10/01 11:18:53;;;;;;;0.85;0.60;;;13.50;99.90;;;;;;5075327;28;20381;-73
2022/10/01 11:21:34;;;;;;;0.60;0.50;;;13.40;99.90;;;;;;5077871;28;20399;-73
2022/10/01 11:24:11;;;;;;;2.30;0.70;;;13.50;99.90;;;;;;5088285;28;20407;-74
2022/10/01 11:27:04;;;;;;;1.10;0.70;;;13.50;99.90;;;;;;5080205;28;20402;-74
2022/10/01 11:29:29;;;;;;;0.85;0.68;;;13.50;99.90;;;;;;5074454;28;20857;-72
2022/10/01 11:32:18;;;;;;;0.90;0.70;;;13.40;99.90;;;;;;5076552;28;20388;-74
2022/10/01 11:34:59;;;;;;;0.80;0.70;;;13.50;99.90;;;;;;5057356;28;20405;-74
2022/10/01 11:37:31;;;;;;;1.80;0.65;;;13.50;99.90;;;;;;5077582;28;21093;-73
2022/10/01 11:40:01;;;;;;;1.63;0.82;;;13.50;99.90;;;;;;5081697;28;20989;-72
2022/10/01 11:42:34;;;;;;;1.25;1.00;;;13.40;99.90;;;;;;5086042;28;20390;-73
2022/10/01 11:45:10;;;;;;;1.60;0.60;;;13.50;99.90;;;;;;5079459;28;20774;-73
2022/10/01 11:47:42;;;;;;;0.88;0.70;;;13.40;99.90;;;;;;5062853;28;20446;-73
2022/10/01 11:50:19;;;;;;;1.60;0.80;;;13.50;99.90;;;;;;5081269;28;20423;-72
2022/10/01 11:52:51;;;;;;;1.40;0.70;;;13.40;99.90;;;;;;5081602;28;20405;-73
2022/10/01 11:58:49;;;;;;;1.17;1.08;;;13.40;99.90;;;;;;5079677;28;20403;-73
2022/10/01 12:01:24;;;;;;;2.20;0.80;;;13.40;99.90;;;;;;5084709;28;20484;-73
2022/10/01 12:03:52;;;;;;;0.80;0.80;;;13.50;99.90;;;;;;5085067;28;20856;-73
2022/10/01 12:06:33;;;;;;;1.02;0.68;;;13.40;99.90;;;;;;5091455;28;20394;-73
2022/10/01 12:09:12;;;;;;;1.70;0.70;;;13.50;99.90;;;;;;5062610;28;20398;-74
2022/10/01 12:11:52;;;;;;;1.60;0.80;;;13.50;99.90;;;;;;5084627;28;20523;-74
2022/10/01 12:14:23;;;;;;;0.87;0.60;;;13.50;99.90;;;;;;5092266;28;20411;-73
2022/10/01 12:16:55;;;;;;;1.50;0.65;;;13.60;99.90;;;;;;5092498;28;20416;-73
2022/10/01 12:19:45;;;;;;;1.30;0.70;;;13.60;99.90;;;;;;5087178;28;20376;-73
2022/10/01 12:22:16;;;;;;;1.40;0.80;;;13.60;99.90;;;;;;5089118;28;20379;-73
2022/10/01 12:24:43;;;;;;;0.90;0.60;;;13.60;99.90;;;;;;5072230;28;20391;-72
2022/10/01 12:27:46;;;;;;;1.00;0.70;;;13.60;99.90;;;;;;5084854;28;20424;-73
2022/10/01 12:30:28;;;;;;;1.33;0.60;;;13.60;99.90;;;;;;5074114;28;20375;-74
2022/10/01 12:33:26;;;;;;;0.80;0.57;;;13.60;99.90;;;;;;5071894;28;20386;-74
2022/10/01 12:36:36;;;;;;;1.30;0.60;;;13.70;99.90;;;;;;5071780;28;20403;-72
2022/10/01 12:39:19;;;;;;;1.45;0.50;;;13.70;99.90;;;;;;4970845;28;20419;-73
2022/10/01 12:42:20;;;;;;;0.80;0.60;;;13.70;99.90;;;;;;4970067;28;20404;-72
2022/10/01 12:45:39;;;;;;;0.60;0.50;;;13.80;99.90;;;;;;5067394;28;20463;-73
2022/10/01 12:48:34;;;;;;;0.70;0.70;;;13.70;99.90;;;;;;4989963;28;20736;-73
2022/10/01 12:51:35;;;;;;;0.50;0.50;;;13.70;99.90;;;;;;4989005;28;20398;-73
2022/10/01 12:54:09;;;;;;;0.70;0.70;;;13.80;99.90;;;;;;5078551;28;20866;-73
2022/10/01 12:56:43;;;;;;;1.20;0.80;;;13.80;99.90;;;;;;5074326;28;20407;-73
2022/10/01 12:59:34;;;;;;;0.77;0.52;;;13.80;99.90;;;;;;5053568;28;20383;-73
2022/10/01 13:02:06;;;;;;;0.50;0.50;;;13.90;99.90;;;;;;5071562;28;20384;-74
2022/10/01 13:04:49;;;;;;;0.60;0.52;;;13.90;99.90;;;;;;5083120;28;20399;-72
2022/10/01 13:07:59;;;;;;;1.00;0.57;;;13.90;99.90;;;;;;5073319;28;20422;-73
2022/10/01 13:11:02;;;;;;;0.60;0.50;;;14.00;99.90;;;;;;5071243;28;20372;-73
2022/10/01 13:13:33;;;;;;;2.40;0.70;;;14.00;99.90;;;;;;5071124;28;20375;-74
2022/10/01 13:16:19;;;;;;;0.52;0.40;;;14.00;99.90;;;;;;5071187;28;20396;-73
2022/10/01 13:18:57;;;;;;;2.00;0.60;;;14.00;99.90;;;;;;5071079;28;20474;-73
2022/10/01 13:21:52;;;;;;;0.60;0.50;;;14.10;99.90;;;;;;5070529;28;20404;-73